Time;durP1;ratioP1;P1;durP2;ratioP2;P2;SDS_P1;SDS_P2;PMS_P1;PMS_P2;Temp;Humidity;BMP_temperature;BMP_pressure;BME280_temperature;BME280_humidity;BME280_pressure;Samples;Min_cycle;Max_cycle;Signal;HPM_P1;HPM_P2
2023/08/28 06:35:09;;;;;;;2.88;0.90;;;;;;;;;;6123642;22;1330697;-67
2023/08/28 06:37:35;;;;;;;2.15;0.90;;;;;;;;;;6181809;23;20412;-67
2023/08/28 06:40:03;;;;;;;2.33;0.80;;;;;;;;;;6184813;23;20084;-67
2023/08/28 06:42:30;;;;;;;2.35;0.75;;;;;;;;;;6184219;23;20120;-67
2023/08/28 06:44:56;;;;;;;3.22;0.95;;;;;;;;;;6183121;23;20119;-67
2023/08/28 06:47:22;;;;;;;6.32;1.00;;;;;;;;;;6184684;23;20100;-67
2023/08/28 06:49:48;;;;;;;7.50;0.80;;;;;;;;;;6184324;23;20080;-67
2023/08/28 06:52:15;;;;;;;1.00;0.70;;;;;;;;;;6184342;23;20436;-67
2023/08/28 06:54:41;;;;;;;6.20;1.08;;;;;;;;;;6183054;23;20068;-67
2023/08/28 06:57:07;;;;;;;8.57;0.70;;;;;;;;;;6184059;23;20084;-67
2023/08/28 06:59:34;;;;;;;2.15;0.70;;;;;;;;;;6184581;23;20077;-67
2023/08/28 07:02:00;;;;;;;2.47;0.90;;;;;;;;;;6183870;23;20458;-67
2023/08/28 07:04:26;;;;;;;2.08;1.00;;;;;;;;;;6183896;23;20083;-67
2023/08/28 07:06:53;;;;;;;2.47;0.90;;;;;;;;;;6183379;23;20072;-67
2023/08/28 07:09:19;;;;;;;2.42;0.82;;;;;;;;;;6183897;23;20077;-67
2023/08/28 07:11:46;;;;;;;6.10;0.82;;;;;;;;;;6183759;23;20076;-67
2023/08/28 07:14:13;;;;;;;3.20;0.82;;;;;;;;;;6182226;23;20084;-67
2023/08/28 07:16:39;;;;;;;4.03;0.80;;;;;;;;;;6183669;23;20068;-67
2023/08/28 07:19:05;;;;;;;3.55;1.00;;;;;;;;;;6183769;23;20072;-67
2023/08/28 07:21:32;;;;;;;2.65;0.90;;;;;;;;;;6181663;23;20507;-67
2023/08/28 07:23:58;;;;;;;4.15;1.08;;;;;;;;;;6183719;23;20072;-67
2023/08/28 07:26:24;;;;;;;2.75;1.00;;;;;;;;;;6183299;23;20072;-67
2023/08/28 07:28:51;;;;;;;2.10;0.85;;;;;;;;;;6180757;23;20080;-67
2023/08/28 07:31:17;;;;;;;2.67;0.90;;;;;;;;;;6183212;23;20522;-67
2023/08/28 07:33:43;;;;;;;1.20;0.80;;;;;;;;;;6182941;23;20065;-67
2023/08/28 07:36:10;;;;;;;1.88;0.90;;;;;;;;;;6204210;23;20171;-67
2023/08/28 07:38:36;;;;;;;1.88;0.70;;;;;;;;;;6212351;23;20391;-67
2023/08/28 07:41:02;;;;;;;4.13;1.02;;;;;;;;;;6213541;23;20079;-67
2023/08/28 07:43:29;;;;;;;3.75;1.00;;;;;;;;;;6213392;23;20042;-67
2023/08/28 07:45:55;;;;;;;1.13;0.68;;;;;;;;;;6213252;23;20551;-67
2023/08/28 07:48:23;;;;;;;3.15;1.00;;;;;;;;;;6212297;23;20054;-67
2023/08/28 07:50:50;;;;;;;1.58;0.93;;;;;;;;;;6212513;23;20091;-67
2023/08/28 07:53:16;;;;;;;2.92;1.00;;;;;;;;;;6213612;23;20134;-67
2023/08/28 07:55:42;;;;;;;3.28;0.80;;;;;;;;;;6213324;23;20134;-67
2023/08/28 07:58:09;;;;;;;3.03;0.85;;;;;;;;;;6213615;23;20077;-67
2023/08/28 08:00:36;;;;;;;4.50;0.88;;;;;;;;;;6212584;23;20088;-67
2023/08/28 08:03:03;;;;;;;2.63;0.88;;;;;;;;;;6213398;23;20016;-67
2023/08/28 08:05:31;;;;;;;3.28;1.10;;;;;;;;;;6212086;23;20095;-68
2023/08/28 08:07:58;;;;;;;1.80;0.80;;;;;;;;;;6213645;23;20087;-67
2023/08/28 08:10:24;;;;;;;3.20;1.00;;;;;;;;;;6213494;23;20056;-67
2023/08/28 08:12:51;;;;;;;2.05;0.85;;;;;;;;;;6186502;23;20075;-67
2023/08/28 08:15:17;;;;;;;2.88;0.90;;;;;;;;;;6213366;23;20079;-67
2023/08/28 08:17:43;;;;;;;1.27;0.75;;;;;;;;;;6213171;23;20075;-67
2023/08/28 08:20:11;;;;;;;2.60;0.80;;;;;;;;;;6213207;23;20084;-68
2023/08/28 08:22:38;;;;;;;2.08;1.02;;;;;;;;;;6212629;23;20019;-68
2023/08/28 08:25:05;;;;;;;2.15;0.80;;;;;;;;;;6213190;23;20084;-68
2023/08/28 08:27:31;;;;;;;1.58;0.80;;;;;;;;;;6212020;23;20067;-68
2023/08/28 08:29:57;;;;;;;2.33;0.90;;;;;;;;;;6213144;23;20396;-67
2023/08/28 08:32:24;;;;;;;1.42;0.90;;;;;;;;;;6212810;23;20387;-68
2023/08/28 08:34:50;;;;;;;4.57;0.75;;;;;;;;;;6186063;23;20096;-68
2023/08/28 08:37:16;;;;;;;3.38;0.75;;;;;;;;;;6213503;23;20068;-67
2023/08/28 08:39:43;;;;;;;1.90;0.85;;;;;;;;;;6186714;23;20079;-68
2023/08/28 08:42:09;;;;;;;1.73;0.90;;;;;;;;;;6213392;23;20004;-68
2023/08/28 08:44:35;;;;;;;1.33;0.82;;;;;;;;;;6213685;23;20084;-67
2023/08/28 08:47:03;;;;;;;3.35;0.88;;;;;;;;;;6186662;23;20080;-67
2023/08/28 08:49:31;;;;;;;1.33;0.70;;;;;;;;;;6212682;23;20529;-67
2023/08/28 08:52:00;;;;;;;2.70;0.90;;;;;;;;;;6213677;23;20084;-67
2023/08/28 08:54:30;;;;;;;3.17;1.35;;;;;;;;;;6212616;23;20502;-68
2023/08/28 08:57:02;;;;;;;1.77;0.73;;;;;;;;;;6213134;23;20084;-68
2023/08/28 08:59:29;;;;;;;1.55;0.70;;;;;;;;;;6213062;23;20071;-67
2023/08/28 09:01:55;;;;;;;2.33;0.52;;;;;;;;;;6186170;23;20087;-67
2023/08/28 09:04:22;;;;;;;10.43;1.05;;;;;;;;;;6213094;23;20079;-67
2023/08/28 09:06:50;;;;;;;1.17;0.73;;;;;;;;;;6213067;23;20111;-68
2023/08/28 09:09:16;;;;;;;2.17;0.80;;;;;;;;;;6213069;23;20067;-67
2023/08/28 09:11:45;;;;;;;1.10;0.70;;;;;;;;;;6212863;23;20067;-67
2023/08/28 09:14:12;;;;;;;0.57;0.57;;;;;;;;;;6213083;23;20542;-68
2023/08/28 09:16:39;;;;;;;3.17;0.65;;;;;;;;;;6212242;23;20514;-67
2023/08/28 09:19:05;;;;;;;1.45;0.80;;;;;;;;;;6214384;23;20075;-67
2023/08/28 09:21:44;;;;;;;1.85;0.63;;;;;;;;;;6214660;23;20071;-67
2023/08/28 09:24:11;;;;;;;1.55;0.57;;;;;;;;;;6214622;23;20088;-67
2023/08/28 09:26:38;;;;;;;1.77;0.60;;;;;;;;;;6214661;23;20064;-67
2023/08/28 09:29:06;;;;;;;2.60;0.60;;;;;;;;;;6211259;23;20499;-66
2023/08/28 09:31:36;;;;;;;2.67;0.70;;;;;;;;;;6212126;23;20074;-66
2023/08/28 09:34:03;;;;;;;2.22;0.73;;;;;;;;;;6214547;23;20063;-68
2023/08/28 09:36:35;;;;;;;0.60;0.50;;;;;;;;;;6213714;23;20056;-66
2023/08/28 09:39:03;;;;;;;0.77;0.60;;;;;;;;;;6214441;23;20075;-68
2023/08/28 09:41:37;;;;;;;2.85;0.60;;;;;;;;;;6212638;23;20171;-66
2023/08/28 09:44:04;;;;;;;1.45;0.60;;;;;;;;;;6213941;23;20515;-67
2023/08/28 09:46:30;;;;;;;1.83;0.60;;;;;;;;;;6214252;23;20101;-66
2023/08/28 09:48:57;;;;;;;1.20;0.55;;;;;;;;;;6214551;23;20088;-66
2023/08/28 09:51:38;;;;;;;1.08;0.65;;;;;;;;;;6214251;23;20396;-66
2023/08/28 09:54:04;;;;;;;;;;;;;;;;;;6215289;23;20444;-67
2023/08/28 09:56:31;;;;;;;0.95;0.60;;;;;;;;;;6214296;23;19967;-67
2023/08/28 09:59:03;;;;;;;1.30;0.70;;;;;;;;;;6214324;23;20079;-67
2023/08/28 10:01:32;;;;;;;1.05;0.40;;;;;;;;;;6213703;23;20360;-66
2023/08/28 10:04:00;;;;;;;2.05;0.55;;;;;;;;;;6214439;23;20514;-66
2023/08/28 10:06:27;;;;;;;0.60;0.50;;;;;;;;;;6214367;23;20068;-67
2023/08/28 10:09:00;;;;;;;0.70;0.35;;;;;;;;;;6214360;23;20083;-67
2023/08/28 10:11:32;;;;;;;0.45;0.30;;;;;;;;;;6214305;23;20084;-67
2023/08/28 10:13:59;;;;;;;4.40;0.57;;;;;;;;;;6214442;23;20068;-66
2023/08/28 10:16:26;;;;;;;0.40;0.40;;;;;;;;;;6214013;23;20071;-67
2023/08/28 10:18:58;;;;;;;1.50;0.50;;;;;;;;;;6214297;23;20489;-66
2023/08/28 10:21:25;;;;;;;1.25;0.57;;;;;;;;;;6214308;23;20060;-66
2023/08/28 10:23:52;;;;;;;1.83;0.60;;;;;;;;;;6213834;23;20120;-67
2023/08/28 10:26:19;;;;;;;0.95;0.38;;;;;;;;;;6214204;23;20077;-67
2023/08/28 10:28:46;;;;;;;0.98;0.57;;;;;;;;;;6214001;23;20087;-67
2023/08/28 10:31:12;;;;;;;1.40;0.80;;;;;;;;;;6213732;23;20095;-67
2023/08/28 10:33:39;;;;;;;1.45;0.60;;;;;;;;;;6213798;23;20406;-67
2023/08/28 10:36:10;;;;;;;0.40;0.40;;;;;;;;;;6214329;23;20083;-67
2023/08/28 10:38:37;;;;;;;1.45;0.50;;;;;;;;;;6214471;23;20079;-67
2023/08/28 10:41:04;;;;;;;2.67;0.60;;;;;;;;;;6214468;23;20064;-67
2023/08/28 10:43:31;;;;;;;1.55;0.43;;;;;;;;;;6214093;23;20012;-67
2023/08/28 10:46:00;;;;;;;0.68;0.50;;;;;;;;;;6214908;23;20367;-67
2023/08/28 10:48:26;;;;;;;0.47;0.47;;;;;;;;;;6187898;23;20100;-67
2023/08/28 10:51:00;;;;;;;1.00;0.43;;;;;;;;;;6214883;23;20075;-67
2023/08/28 10:53:27;;;;;;;3.00;0.60;;;;;;;;;;6214990;23;20075;-67
2023/08/28 10:56:02;;;;;;;3.53;0.50;;;;;;;;;;6214822;23;20071;-67
2023/08/28 10:58:32;;;;;;;2.90;0.50;;;;;;;;;;6214492;23;20079;-67
2023/08/28 11:01:17;;;;;;;2.10;0.65;;;;;;;;;;6214865;23;20067;-67
2023/08/28 11:03:56;;;;;;;1.08;0.60;;;;;;;;;;6214735;23;20088;-67
2023/08/28 11:06:36;;;;;;;3.63;0.50;;;;;;;;;;6214727;23;20084;-67
2023/08/28 11:09:20;;;;;;;2.27;0.57;;;;;;;;;;6214654;23;20084;-66
2023/08/28 11:11:47;;;;;;;1.17;0.52;;;;;;;;;;6214773;23;20494;-67
2023/08/28 11:14:16;;;;;;;2.60;0.70;;;;;;;;;;6214347;23;20068;-67
2023/08/28 11:16:42;;;;;;;0.88;0.43;;;;;;;;;;6214883;23;20126;-67
2023/08/28 11:19:08;;;;;;;1.00;0.40;;;;;;;;;;6214740;23;20064;-67
2023/08/28 11:21:44;;;;;;;0.95;0.43;;;;;;;;;;6214705;23;20379;-67
2023/08/28 11:24:36;;;;;;;1.08;0.40;;;;;;;;;;6214708;23;20079;-67
2023/08/28 11:27:03;;;;;;;0.55;0.40;;;;;;;;;;6208020;23;20079;-66
2023/08/28 11:29:32;;;;;;;2.53;0.50;;;;;;;;;;6214726;23;20076;-67
2023/08/28 11:31:58;;;;;;;0.57;0.38;;;;;;;;;;6214642;23;20075;-67
2023/08/28 11:34:25;;;;;;;1.33;0.40;;;;;;;;;;6214420;23;20088;-67
2023/08/28 11:36:51;;;;;;;0.40;0.30;;;;;;;;;;6214326;23;20099;-67
2023/08/28 11:39:24;;;;;;;2.13;0.90;;;;;;;;;;6214413;23;20075;-67
2023/08/28 11:41:51;;;;;;;0.40;0.30;;;;;;;;;;6213629;23;20081;-67
2023/08/28 11:44:17;;;;;;;2.22;0.30;;;;;;;;;;6184556;23;20088;-67
2023/08/28 11:46:43;;;;;;;0.47;0.40;;;;;;;;;;6213678;23;20119;-67
2023/08/28 11:49:10;;;;;;;1.48;0.50;;;;;;;;;;6213527;23;20145;-67
2023/08/28 11:51:37;;;;;;;1.70;0.40;;;;;;;;;;6213807;23;20523;-67
2023/08/28 11:54:03;;;;;;;0.85;0.40;;;;;;;;;;6213812;23;20071;-67
2023/08/28 11:56:35;;;;;;;1.00;0.40;;;;;;;;;;6213192;23;20087;-67
2023/08/28 11:59:04;;;;;;;0.60;0.40;;;;;;;;;;6213612;23;20079;-67
2023/08/28 12:01:36;;;;;;;1.20;0.40;;;;;;;;;;6212567;23;20080;-67
2023/08/28 12:04:11;;;;;;;0.47;0.30;;;;;;;;;;6213540;23;20418;-67
2023/08/28 12:06:41;;;;;;;0.80;0.40;;;;;;;;;;6211005;23;20076;-67
2023/08/28 12:09:10;;;;;;;1.13;0.40;;;;;;;;;;6213372;23;20116;-67
2023/08/28 12:11:37;;;;;;;1.00;0.60;;;;;;;;;;6213056;23;20486;-67
2023/08/28 12:14:16;;;;;;;0.75;0.60;;;;;;;;;;6213266;23;20076;-67
2023/08/28 12:16:42;;;;;;;1.13;0.30;;;;;;;;;;6213334;23;20115;-67
2023/08/28 12:19:09;;;;;;;1.13;0.40;;;;;;;;;;6186245;23;20108;-67
2023/08/28 12:21:36;;;;;;;0.88;0.40;;;;;;;;;;6213287;23;20092;-67
2023/08/28 12:24:06;;;;;;;1.10;0.45;;;;;;;;;;6213321;23;20507;-67
2023/08/28 12:26:34;;;;;;;1.13;0.50;;;;;;;;;;6213033;23;20080;-67
2023/08/28 12:29:00;;;;;;;0.32;0.32;;;;;;;;;;6213053;23;20084;-67
2023/08/28 12:31:36;;;;;;;0.70;0.47;;;;;;;;;;6213340;23;20060;-67
2023/08/28 12:34:06;;;;;;;1.05;0.40;;;;;;;;;;6213172;23;20072;-67
2023/08/28 12:36:39;;;;;;;0.82;0.50;;;;;;;;;;6212274;23;20146;-67
2023/08/28 12:39:07;;;;;;;0.88;0.47;;;;;;;;;;6212519;23;20099;-67
2023/08/28 12:41:36;;;;;;;1.17;0.40;;;;;;;;;;6212527;23;20076;-67
2023/08/28 12:44:03;;;;;;;0.27;0.27;;;;;;;;;;6213045;23;20088;-67
2023/08/28 12:46:30;;;;;;;0.75;0.43;;;;;;;;;;6213552;23;20079;-67
2023/08/28 12:48:56;;;;;;;0.32;0.32;;;;;;;;;;6213117;23;20097;-67
2023/08/28 12:51:22;;;;;;;0.65;0.30;;;;;;;;;;6213518;23;20103;-67
2023/08/28 12:53:49;;;;;;;1.20;0.57;;;;;;;;;;6214626;23;20080;-66
2023/08/28 12:56:16;;;;;;;0.55;0.40;;;;;;;;;;6215112;23;20075;-67
2023/08/28 12:58:43;;;;;;;0.85;0.40;;;;;;;;;;6215212;23;20087;-67
2023/08/28 13:01:09;;;;;;;0.30;0.30;;;;;;;;;;6214888;23;20076;-67
2023/08/28 13:03:36;;;;;;;1.27;0.50;;;;;;;;;;6214988;23;20080;-67
2023/08/28 13:06:02;;;;;;;1.02;0.35;;;;;;;;;;6215091;23;20530;-77
2023/08/28 13:08:28;;;;;;;0.85;0.50;;;;;;;;;;6188161;23;20075;-67
2023/08/28 13:10:55;;;;;;;1.55;0.50;;;;;;;;;;6214932;23;20068;-68
2023/08/28 13:13:25;;;;;;;0.50;0.30;;;;;;;;;;6215042;23;20071;-68
2023/08/28 13:15:52;;;;;;;1.10;0.45;;;;;;;;;;6215035;23;20072;-67
2023/08/28 13:18:18;;;;;;;0.47;0.40;;;;;;;;;;6214920;23;20083;-67
2023/08/28 13:20:44;;;;;;;2.58;0.38;;;;;;;;;;6186159;23;20075;-68
2023/08/28 13:23:11;;;;;;;2.47;0.50;;;;;;;;;;6214190;23;20154;-67
2023/08/28 13:25:37;;;;;;;0.98;0.35;;;;;;;;;;6214732;23;20392;-67
2023/08/28 13:28:03;;;;;;;2.28;0.50;;;;;;;;;;6214871;23;20087;-67
2023/08/28 13:30:30;;;;;;;1.42;0.40;;;;;;;;;;6215038;23;20088;-67
2023/08/28 13:33:01;;;;;;;0.68;0.40;;;;;;;;;;6214774;23;20079;-67
2023/08/28 13:35:31;;;;;;;1.45;0.50;;;;;;;;;;6214671;23;20091;-68
2023/08/28 13:37:57;;;;;;;0.30;0.30;;;;;;;;;;6214583;23;20083;-67
2023/08/28 13:40:23;;;;;;;2.70;0.52;;;;;;;;;;6214216;23;20068;-67
2023/08/28 13:42:49;;;;;;;1.05;0.32;;;;;;;;;;6214600;23;20012;-67
2023/08/28 13:45:16;;;;;;;0.40;0.40;;;;;;;;;;6215022;23;20079;-67
2023/08/28 13:47:43;;;;;;;0.60;0.20;;;;;;;;;;6214857;23;20084;-67
2023/08/28 13:50:10;;;;;;;0.40;0.40;;;;;;;;;;6214783;23;20076;-67
2023/08/28 13:52:36;;;;;;;0.82;0.43;;;;;;;;;;6214347;23;20076;-67
2023/08/28 13:55:04;;;;;;;0.47;0.40;;;;;;;;;;6214844;23;20068;-67
2023/08/28 13:57:31;;;;;;;1.75;0.30;;;;;;;;;;6214454;23;20088;-67
2023/08/28 13:59:59;;;;;;;1.75;0.40;;;;;;;;;;6214853;23;20072;-67
2023/08/28 14:02:26;;;;;;;1.92;0.47;;;;;;;;;;6214519;23;20517;-67
2023/08/28 14:04:53;;;;;;;1.55;0.40;;;;;;;;;;6212284;23;20155;-67
2023/08/28 14:07:21;;;;;;;1.45;0.38;;;;;;;;;;6214383;23;20087;-68
2023/08/28 14:09:47;;;;;;;6.97;0.50;;;;;;;;;;6214634;23;20091;-67
2023/08/28 14:12:14;;;;;;;4.43;0.60;;;;;;;;;;6214764;23;20514;-68
2023/08/28 14:14:40;;;;;;;0.50;0.50;;;;;;;;;;6214809;23;20067;-68
2023/08/28 14:17:07;;;;;;;2.25;0.60;;;;;;;;;;6214782;23;20075;-67
2023/08/28 14:19:33;;;;;;;2.63;0.52;;;;;;;;;;6214748;23;20076;-67
2023/08/28 14:22:00;;;;;;;0.93;0.60;;;;;;;;;;6214335;23;20063;-67
2023/08/28 14:24:26;;;;;;;1.20;0.60;;;;;;;;;;6213945;23;20052;-68
2023/08/28 14:26:52;;;;;;;0.88;0.57;;;;;;;;;;6214768;23;20072;-67
2023/08/28 14:29:19;;;;;;;1.42;0.50;;;;;;;;;;6213316;23;20084;-67
2023/08/28 14:31:45;;;;;;;1.13;0.50;;;;;;;;;;6214003;23;20072;-67
2023/08/28 14:34:11;;;;;;;2.10;0.60;;;;;;;;;;6214419;23;20075;-68
2023/08/28 14:36:37;;;;;;;0.40;0.40;;;;;;;;;;6213865;23;20087;-67
2023/08/28 14:39:04;;;;;;;0.68;0.47;;;;;;;;;;6214240;23;20124;-68
2023/08/28 14:41:30;;;;;;;1.52;0.60;;;;;;;;;;6214333;23;20083;-67
2023/08/28 14:43:57;;;;;;;0.90;0.60;;;;;;;;;;6214234;23;20027;-67
2023/08/28 14:46:23;;;;;;;2.15;0.70;;;;;;;;;;6214380;23;20538;-67
2023/08/28 14:48:49;;;;;;;0.65;0.60;;;;;;;;;;6214279;23;20079;-67
2023/08/28 14:51:16;;;;;;;0.75;0.57;;;;;;;;;;6213729;23;20088;-67
2023/08/28 14:53:42;;;;;;;1.10;0.55;;;;;;;;;;6213610;23;20079;-67
2023/08/28 14:56:09;;;;;;;2.03;0.57;;;;;;;;;;6214288;23;20068;-67
2023/08/28 14:58:36;;;;;;;0.45;0.43;;;;;;;;;;6214691;23;20071;-67
2023/08/28 15:01:02;;;;;;;3.47;0.98;;;;;;;;;;6214473;23;20075;-67
2023/08/28 15:03:29;;;;;;;2.70;0.52;;;;;;;;;;6214665;23;20507;-67
2023/08/28 15:05:55;;;;;;;0.50;0.50;;;;;;;;;;6214102;23;20075;-67
2023/08/28 15:08:22;;;;;;;0.63;0.57;;;;;;;;;;6214864;23;20072;-67
2023/08/28 15:10:50;;;;;;;1.38;0.57;;;;;;;;;;6214539;23;20107;-67
2023/08/28 15:13:16;;;;;;;4.38;0.65;;;;;;;;;;6214577;23;20067;-67
2023/08/28 15:15:50;;;;;;;0.95;0.60;;;;;;;;;;6214303;23;20060;-67
2023/08/28 15:18:17;;;;;;;2.67;0.90;;;;;;;;;;6187885;23;20079;-67
2023/08/28 15:20:44;;;;;;;2.95;0.63;;;;;;;;;;6214131;23;20085;-67
2023/08/28 15:23:10;;;;;;;1.23;0.55;;;;;;;;;;6214334;23;20088;-67
2023/08/28 15:25:37;;;;;;;1.20;0.75;;;;;;;;;;6214339;23;20067;-67
2023/08/28 15:28:03;;;;;;;0.40;0.40;;;;;;;;;;6214580;23;20104;-67
2023/08/28 15:30:30;;;;;;;0.82;0.70;;;;;;;;;;6214339;23;20076;-67
2023/08/28 15:32:56;;;;;;;1.67;0.60;;;;;;;;;;6187740;23;20083;-67
2023/08/28 15:35:23;;;;;;;1.17;0.50;;;;;;;;;;6213880;23;20387;-67
2023/08/28 15:37:49;;;;;;;1.48;0.70;;;;;;;;;;6214211;23;20075;-67
2023/08/28 15:40:16;;;;;;;1.13;0.70;;;;;;;;;;6214324;23;20071;-67
2023/08/28 15:42:42;;;;;;;1.05;0.65;;;;;;;;;;6212369;23;20009;-67
2023/08/28 15:45:09;;;;;;;1.73;0.68;;;;;;;;;;6213659;23;20099;-67
2023/08/28 15:47:36;;;;;;;0.75;0.60;;;;;;;;;;6214241;23;20083;-67
2023/08/28 15:50:04;;;;;;;2.55;0.70;;;;;;;;;;6213953;23;20079;-67
2023/08/28 15:52:31;;;;;;;1.10;0.90;;;;;;;;;;6213682;23;20071;-67
2023/08/28 15:54:57;;;;;;;0.55;0.50;;;;;;;;;;6214029;23;20103;-67
2023/08/28 15:57:23;;;;;;;0.68;0.50;;;;;;;;;;6214297;23;20521;-67
2023/08/28 15:59:50;;;;;;;0.73;0.70;;;;;;;;;;6214195;23;20442;-66
2023/08/28 16:02:17;;;;;;;0.70;0.70;;;;;;;;;;6213625;23;20008;-67
2023/08/28 16:04:43;;;;;;;0.63;0.63;;;;;;;;;;6213797;23;20088;-67
2023/08/28 16:07:10;;;;;;;1.75;0.88;;;;;;;;;;6214668;23;20123;-67
2023/08/28 16:09:36;;;;;;;0.70;0.70;;;;;;;;;;6214683;23;20490;-67
2023/08/28 16:12:03;;;;;;;0.45;0.45;;;;;;;;;;6215067;23;20079;-67
2023/08/28 16:14:29;;;;;;;2.50;0.63;;;;;;;;;;6214513;23;20085;-67
2023/08/28 16:16:56;;;;;;;1.10;0.57;;;;;;;;;;6214209;23;20143;-67
2023/08/28 16:19:23;;;;;;;2.20;0.70;;;;;;;;;;6214790;23;20072;-67
2023/08/28 16:21:51;;;;;;;0.65;0.57;;;;;;;;;;6214570;23;20084;-67
2023/08/28 16:24:17;;;;;;;2.17;0.65;;;;;;;;;;6214443;23;20087;-67
2023/08/28 16:26:43;;;;;;;1.52;0.80;;;;;;;;;;6215021;23;20064;-67
2023/08/28 16:29:10;;;;;;;2.75;0.80;;;;;;;;;;6216650;23;20067;-67
2023/08/28 16:31:36;;;;;;;0.82;0.80;;;;;;;;;;6216239;23;20491;-67
2023/08/28 16:34:03;;;;;;;0.82;0.60;;;;;;;;;;6216512;23;20530;-67
2023/08/28 16:36:30;;;;;;;0.70;0.60;;;;;;;;;;6216494;23;20079;-67
2023/08/28 16:38:56;;;;;;;1.20;0.63;;;;;;;;;;6216462;23;20083;-67
2023/08/28 16:41:23;;;;;;;3.03;0.60;;;;;;;;;;6216557;23;20079;-67
2023/08/28 16:43:50;;;;;;;1.10;0.60;;;;;;;;;;6216298;23;20083;-67
2023/08/28 16:46:16;;;;;;;0.43;0.43;;;;;;;;;;6216040;23;20099;-67
2023/08/28 16:48:42;;;;;;;0.90;0.50;;;;;;;;;;6216584;23;20126;-67
2023/08/28 16:51:09;;;;;;;0.40;0.40;;;;;;;;;;6216429;23;20433;-66
2023/08/28 16:53:37;;;;;;;0.82;0.47;;;;;;;;;;6216630;23;20084;-67
2023/08/28 16:56:03;;;;;;;0.82;0.45;;;;;;;;;;6216872;23;20072;-67
2023/08/28 16:58:29;;;;;;;0.95;0.68;;;;;;;;;;6216329;23;20068;-67
2023/08/28 17:00:56;;;;;;;0.55;0.55;;;;;;;;;;6215962;23;20076;-67
2023/08/28 17:03:23;;;;;;;0.90;0.50;;;;;;;;;;6216294;23;20083;-67
2023/08/28 17:05:59;;;;;;;0.80;0.52;;;;;;;;;;6216229;23;20076;-67
2023/08/28 17:08:26;;;;;;;1.02;0.60;;;;;;;;;;6216195;23;20079;-67
2023/08/28 17:10:52;;;;;;;0.95;0.40;;;;;;;;;;6216190;23;20068;-67
2023/08/28 17:13:18;;;;;;;0.73;0.52;;;;;;;;;;6216440;23;20080;-67
2023/08/28 17:15:45;;;;;;;0.65;0.55;;;;;;;;;;6215662;23;20079;-67
2023/08/28 17:18:11;;;;;;;2.88;0.65;;;;;;;;;;6216243;23;20075;-67
2023/08/28 17:20:38;;;;;;;0.50;0.50;;;;;;;;;;6216258;23;20080;-67
2023/08/28 17:23:04;;;;;;;0.50;0.50;;;;;;;;;;6216036;23;20091;-67
2023/08/28 17:25:30;;;;;;;1.52;0.70;;;;;;;;;;6215980;23;20079;-67
2023/08/28 17:27:57;;;;;;;0.60;0.60;;;;;;;;;;6216058;23;20103;-66
2023/08/28 17:30:23;;;;;;;0.70;0.70;;;;;;;;;;6215706;23;20075;-67
2023/08/28 17:32:53;;;;;;;8.07;0.90;;;;;;;;;;6216125;23;20076;-67
2023/08/28 17:35:19;;;;;;;1.80;1.00;;;;;;;;;;6215968;23;20134;-66
2023/08/28 17:37:46;;;;;;;1.30;0.90;;;;;;;;;;6215771;23;20087;-67
2023/08/28 17:40:12;;;;;;;2.00;0.90;;;;;;;;;;6215571;23;20068;-67
2023/08/28 17:42:39;;;;;;;3.83;1.15;;;;;;;;;;6215920;23;20099;-67
2023/08/28 17:45:05;;;;;;;1.10;1.00;;;;;;;;;;6215549;23;20068;-67
2023/08/28 17:47:31;;;;;;;1.25;1.10;;;;;;;;;;6215910;23;20076;-67
2023/08/28 17:49:58;;;;;;;0.90;0.90;;;;;;;;;;6215931;23;20135;-67
2023/08/28 17:52:25;;;;;;;6.43;1.08;;;;;;;;;;6215845;23;20081;-67
2023/08/28 17:54:58;;;;;;;0.95;0.85;;;;;;;;;;6215817;23;20063;-67
2023/08/28 17:57:24;;;;;;;2.45;0.98;;;;;;;;;;6216124;23;20088;-67
2023/08/28 17:59:51;;;;;;;0.95;0.80;;;;;;;;;;6215320;23;20400;-67
2023/08/28 18:02:17;;;;;;;1.42;1.00;;;;;;;;;;6215629;23;20092;-66
2023/08/28 18:04:44;;;;;;;1.10;0.90;;;;;;;;;;6215756;23;20079;-67
2023/08/28 18:07:10;;;;;;;1.08;0.90;;;;;;;;;;6215735;23;20063;-67
2023/08/28 18:09:36;;;;;;;1.00;0.90;;;;;;;;;;6215549;23;20084;-66
2023/08/28 18:12:03;;;;;;;1.38;0.93;;;;;;;;;;6215729;23;20080;-67
2023/08/28 18:14:30;;;;;;;1.83;1.10;;;;;;;;;;6215421;23;20071;-67
2023/08/28 18:16:56;;;;;;;3.33;0.90;;;;;;;;;;6215499;23;20518;-67
2023/08/28 18:19:23;;;;;;;1.15;0.88;;;;;;;;;;6215820;23;20067;-67
2023/08/28 18:21:49;;;;;;;1.38;1.00;;;;;;;;;;6215599;23;20076;-67
2023/08/28 18:24:15;;;;;;;2.40;0.82;;;;;;;;;;6215189;23;20088;-67
2023/08/28 18:26:42;;;;;;;1.17;0.70;;;;;;;;;;6215645;23;20064;-67
2023/08/28 18:29:08;;;;;;;0.80;0.70;;;;;;;;;;6215089;23;20510;-66
2023/08/28 18:31:34;;;;;;;1.63;0.82;;;;;;;;;;6215594;23;20080;-67
2023/08/28 18:34:01;;;;;;;0.93;0.88;;;;;;;;;;6215517;23;20519;-67
2023/08/28 18:36:28;;;;;;;1.60;0.80;;;;;;;;;;6215294;23;20087;-67
2023/08/28 18:38:54;;;;;;;1.77;0.90;;;;;;;;;;6215589;23;20510;-67
2023/08/28 18:41:21;;;;;;;0.90;0.70;;;;;;;;;;6215352;23;20126;-66
2023/08/28 18:43:48;;;;;;;0.77;0.70;;;;;;;;;;6214773;23;20084;-67
2023/08/28 18:46:14;;;;;;;1.00;0.90;;;;;;;;;;6215314;23;20071;-67
2023/08/28 18:48:41;;;;;;;0.90;0.80;;;;;;;;;;6215361;23;20064;-67
2023/08/28 18:51:08;;;;;;;2.10;1.00;;;;;;;;;;6215120;23;20075;-67
2023/08/28 18:53:35;;;;;;;1.13;0.90;;;;;;;;;;6215197;23;20076;-67
2023/08/28 18:56:01;;;;;;;0.73;0.70;;;;;;;;;;6215398;23;20408;-66
2023/08/28 18:58:28;;;;;;;0.88;0.75;;;;;;;;;;6214762;23;20072;-66
2023/08/28 19:00:57;;;;;;;1.38;0.90;;;;;;;;;;6215156;23;20068;-67
2023/08/28 19:03:25;;;;;;;0.85;0.85;;;;;;;;;;6215107;23;20100;-67
2023/08/28 19:05:52;;;;;;;0.80;0.80;;;;;;;;;;6215134;23;20076;-66
2023/08/28 19:08:18;;;;;;;0.60;0.60;;;;;;;;;;6215021;23;20080;-67
2023/08/28 19:10:45;;;;;;;0.82;0.82;;;;;;;;;;6215468;23;20080;-66
2023/08/28 19:13:11;;;;;;;1.60;1.02;;;;;;;;;;6214630;23;20064;-67
2023/08/28 19:15:37;;;;;;;1.85;0.80;;;;;;;;;;6215045;23;20071;-67
2023/08/28 19:18:04;;;;;;;2.80;0.70;;;;;;;;;;6215083;23;20372;-67
2023/08/28 19:20:30;;;;;;;1.55;0.82;;;;;;;;;;6214973;23;20079;-67
2023/08/28 19:22:56;;;;;;;0.90;0.68;;;;;;;;;;6215096;23;20088;-67
2023/08/28 19:25:23;;;;;;;1.10;0.70;;;;;;;;;;6214606;23;20079;-67
2023/08/28 19:27:50;;;;;;;2.05;0.80;;;;;;;;;;6214916;23;20071;-67
2023/08/28 19:30:16;;;;;;;0.82;0.75;;;;;;;;;;6214984;23;20083;-66
2023/08/28 19:32:43;;;;;;;0.82;0.70;;;;;;;;;;6214934;23;20064;-66
2023/08/28 19:35:11;;;;;;;0.60;0.60;;;;;;;;;;6214738;23;20514;-66
2023/08/28 19:37:38;;;;;;;0.68;0.57;;;;;;;;;;6214886;23;20072;-66
2023/08/28 19:40:05;;;;;;;0.60;0.60;;;;;;;;;;6214533;23;20092;-66
2023/08/28 19:42:32;;;;;;;0.73;0.70;;;;;;;;;;6214765;23;20080;-66
2023/08/28 19:44:58;;;;;;;0.60;0.60;;;;;;;;;;6214767;23;20072;-67
2023/08/28 19:47:25;;;;;;;0.77;0.70;;;;;;;;;;6214880;23;20538;-67
2023/08/28 19:49:51;;;;;;;0.73;0.60;;;;;;;;;;6214723;23;20067;-67
2023/08/28 19:52:19;;;;;;;1.17;0.60;;;;;;;;;;6214884;23;20498;-65
2023/08/28 19:54:48;;;;;;;0.50;0.50;;;;;;;;;;6214376;23;20072;-67
2023/08/28 19:57:16;;;;;;;1.55;0.57;;;;;;;;;;6214855;23;20483;-67
2023/08/28 19:59:46;;;;;;;1.17;0.70;;;;;;;;;;6214749;23;20071;-65
2023/08/28 20:02:12;;;;;;;0.70;0.50;;;;;;;;;;6187717;23;20072;-66
2023/08/28 20:04:39;;;;;;;1.65;0.70;;;;;;;;;;6214751;23;20100;-65
2023/08/28 20:07:07;;;;;;;0.60;0.60;;;;;;;;;;6214682;23;20072;-65
2023/08/28 20:09:34;;;;;;;0.73;0.60;;;;;;;;;;6214315;23;20380;-65
2023/08/28 20:12:01;;;;;;;0.40;0.40;;;;;;;;;;6214636;23;20068;-66
2023/08/28 20:14:28;;;;;;;0.60;0.60;;;;;;;;;;6214436;23;20080;-66
2023/08/28 20:16:54;;;;;;;0.60;0.60;;;;;;;;;;6214686;23;20121;-66
2023/08/28 20:19:21;;;;;;;1.10;0.60;;;;;;;;;;6214713;23;20076;-66
2023/08/28 20:21:47;;;;;;;0.85;0.65;;;;;;;;;;6214582;23;20063;-67
2023/08/28 20:24:14;;;;;;;0.80;0.60;;;;;;;;;;6214133;23;20087;-66
2023/08/28 20:26:40;;;;;;;0.63;0.60;;;;;;;;;;6214642;23;20072;-66
2023/08/28 20:29:06;;;;;;;0.98;0.57;;;;;;;;;;6214620;23;20080;-66
2023/08/28 20:31:32;;;;;;;0.50;0.50;;;;;;;;;;6214622;23;20079;-67
2023/08/28 20:33:59;;;;;;;0.73;0.47;;;;;;;;;;6214565;23;20076;-66
2023/08/28 20:36:25;;;;;;;0.85;0.70;;;;;;;;;;6214407;23;20151;-66
2023/08/28 20:38:51;;;;;;;0.40;0.40;;;;;;;;;;6214049;23;20076;-66
2023/08/28 20:41:18;;;;;;;1.33;0.50;;;;;;;;;;6214570;23;20083;-66
2023/08/28 20:43:44;;;;;;;0.45;0.40;;;;;;;;;;6187824;23;20486;-66
2023/08/28 20:46:10;;;;;;;0.68;0.52;;;;;;;;;;6214441;23;20075;-66
2023/08/28 20:48:37;;;;;;;0.50;0.50;;;;;;;;;;6214524;23;20068;-67
2023/08/28 20:51:03;;;;;;;2.15;0.70;;;;;;;;;;6214456;23;20072;-66
2023/08/28 20:53:31;;;;;;;0.73;0.43;;;;;;;;;;6214028;23;20075;-67
2023/08/28 20:55:58;;;;;;;0.70;0.50;;;;;;;;;;6214524;23;20075;-66
2023/08/28 20:58:24;;;;;;;1.00;0.68;;;;;;;;;;6214441;23;20534;-66
2023/08/28 21:00:50;;;;;;;0.60;0.60;;;;;;;;;;6214527;23;20063;-66
2023/08/28 21:03:17;;;;;;;0.82;0.55;;;;;;;;;;6214298;23;20400;-66
2023/08/28 21:05:44;;;;;;;0.50;0.50;;;;;;;;;;6214450;23;20079;-66
2023/08/28 21:08:10;;;;;;;0.90;0.75;;;;;;;;;;6214364;23;20079;-66
2023/08/28 21:10:37;;;;;;;0.82;0.57;;;;;;;;;;6214360;23;20360;-66
2023/08/28 21:13:03;;;;;;;0.40;0.40;;;;;;;;;;6215004;23;20115;-67
2023/08/28 21:15:29;;;;;;;2.17;0.60;;;;;;;;;;6216112;23;20072;-67
2023/08/28 21:17:58;;;;;;;0.45;0.45;;;;;;;;;;6216300;23;20079;-66